createdAt,value
2023-05-01T00:02:25.540Z,31.00
2023-05-01T00:04:53.661Z,33.00
2023-05-01T00:07:21.765Z,31.00
2023-05-01T00:09:49.573Z,33.00
2023-05-01T00:12:17.854Z,36.50
2023-05-01T00:14:45.749Z,32.00
2023-05-01T00:17:14.108Z,33.50
2023-05-01T00:19:42.197Z,34.00
2023-05-01T00:22:10.117Z,31.00
2023-05-01T00:24:38.040Z,37.00
2023-05-01T00:27:06.307Z,36.00
2023-05-01T00:29:34.167Z,36.00
2023-05-01T00:32:02.113Z,37.00
2023-05-01T00:34:30.237Z,33.00
2023-05-01T00:36:58.950Z,31.00
2023-05-01T00:39:26.976Z,33.00
2023-05-01T00:41:56.061Z,32.00
2023-05-01T00:44:24.073Z,33.50
2023-05-01T00:46:51.989Z,29.50
2023-05-01T00:49:20.765Z,36.50
2023-05-01T00:51:53.088Z,34.00
2023-05-01T00:54:23.109Z,33.00
2023-05-01T00:56:52.514Z,35.50
2023-05-01T00:59:21.285Z,28.00
2023-05-01T01:01:49.182Z,26.00
2023-05-01T01:04:17.148Z,27.00
2023-05-01T01:07:13.231Z,35.00
2023-05-01T01:09:56.038Z,34.00
2023-05-01T01:12:29.926Z,27.50
2023-05-01T01:15:20.080Z,31.00
2023-05-01T01:18:15.238Z,29.00
2023-05-01T01:21:06.982Z,29.50
2023-05-01T01:24:12.399Z,26.00
2023-05-01T01:27:02.453Z,27.00
2023-05-01T01:29:30.685Z,25.00
2023-05-01T01:32:18.192Z,26.00
2023-05-01T01:34:51.971Z,29.00
2023-05-01T01:37:29.878Z,27.00
2023-05-01T01:40:16.501Z,24.00
2023-05-01T01:42:55.509Z,23.00
2023-05-01T01:45:30.768Z,26.00
2023-05-01T01:47:59.956Z,26.50
2023-05-01T01:50:29.606Z,23.50
2023-05-01T01:53:00.355Z,27.00
2023-05-01T01:55:31.586Z,28.00
2023-05-01T01:58:01.043Z,23.00
2023-05-01T02:00:31.000Z,25.00
2023-05-01T02:03:01.459Z,33.00
2023-05-01T02:05:33.288Z,27.00
2023-05-01T02:08:03.686Z,29.00
2023-05-01T02:10:34.661Z,29.50
2023-05-01T02:13:03.822Z,23.67
2023-05-01T02:15:34.134Z,29.50
2023-05-01T02:18:05.149Z,26.00
2023-05-01T02:20:34.149Z,31.00
2023-05-01T02:23:03.745Z,35.00
2023-05-01T02:25:34.890Z,29.00
2023-05-01T02:28:07.048Z,30.50
2023-05-01T02:30:34.990Z,33.00
2023-05-01T02:33:03.281Z,29.00
2023-05-01T02:35:31.216Z,31.00
2023-05-01T02:37:59.425Z,28.00
2023-05-01T02:40:27.871Z,27.00
2023-05-01T02:42:56.047Z,22.50
2023-05-01T02:45:25.429Z,29.50
2023-05-01T02:47:57.871Z,30.50
2023-05-01T02:50:27.063Z,22.00
2023-05-01T02:52:56.751Z,28.50
2023-05-01T02:55:29.419Z,22.50
2023-05-01T02:58:00.522Z,27.50
2023-05-01T03:00:28.706Z,23.50
2023-05-01T03:02:56.781Z,29.00
2023-05-01T03:05:24.770Z,27.00
2023-05-01T03:07:52.825Z,25.00
2023-05-01T03:10:21.177Z,39.00
2023-05-01T03:12:49.117Z,44.00
2023-05-01T03:15:17.146Z,27.00
2023-05-01T03:17:45.239Z,30.50
2023-05-01T03:20:13.366Z,30.50
2023-05-01T03:22:41.331Z,32.00
2023-05-01T03:25:09.926Z,29.00
2023-05-01T03:27:37.938Z,32.50
2023-05-01T03:30:06.535Z,29.00
2023-05-01T03:32:37.062Z,38.00
2023-05-01T03:35:06.010Z,29.00
2023-05-01T03:37:34.150Z,30.50
2023-05-01T03:40:02.374Z,27.00
2023-05-01T03:43:13.275Z,32.00
2023-05-01T03:45:43.339Z,29.00
2023-05-01T03:48:13.831Z,33.00
2023-05-01T03:50:42.371Z,33.00
2023-05-01T03:53:10.707Z,32.50
2023-05-01T03:55:40.121Z,27.50
2023-05-01T03:58:08.189Z,28.00
2023-05-01T04:00:36.475Z,30.50
2023-05-01T04:03:05.416Z,30.00
2023-05-01T04:05:34.309Z,25.00
2023-05-01T04:08:04.431Z,26.00
2023-05-01T04:10:32.318Z,32.00
2023-05-01T04:13:04.063Z,22.50
2023-05-01T04:15:32.555Z,26.00
2023-05-01T04:18:00.746Z,21.50
2023-05-01T04:20:28.697Z,25.00
2023-05-01T04:22:56.683Z,25.00
2023-05-01T04:25:24.873Z,28.00
2023-05-01T04:27:54.945Z,26.50
2023-05-01T04:30:22.960Z,17.00
2023-05-01T04:32:50.994Z,23.50
2023-05-01T04:35:19.112Z,25.00
2023-05-01T04:37:47.328Z,26.00
2023-05-01T04:40:15.299Z,22.00
2023-05-01T04:42:43.997Z,26.00
2023-05-01T04:45:14.162Z,21.00
2023-05-01T04:47:42.136Z,26.00
2023-05-01T04:50:10.962Z,25.00
2023-05-01T04:52:39.288Z,17.00
2023-05-01T04:55:08.090Z,27.67
2023-05-01T04:57:38.035Z,20.33
2023-05-01T05:00:08.446Z,24.00
2023-05-01T05:02:42.215Z,21.00
2023-05-01T05:05:11.380Z,18.00
2023-05-01T05:07:39.299Z,21.00
2023-05-01T05:10:28.943Z,19.00
2023-05-01T05:13:30.370Z,21.00
2023-05-01T05:16:05.780Z,22.00
2023-05-01T05:18:34.352Z,18.00
2023-05-01T05:21:06.616Z,20.00
2023-05-01T05:23:35.168Z,16.00
2023-05-01T05:26:03.813Z,22.50
2023-05-01T05:28:32.009Z,21.00
2023-05-01T05:31:01.722Z,21.00
2023-05-01T05:33:30.270Z,16.00
2023-05-01T05:35:59.989Z,19.00
2023-05-01T05:38:31.449Z,16.00
2023-05-01T05:41:01.042Z,18.00
2023-05-01T05:43:30.207Z,16.00
2023-05-01T05:46:00.669Z,18.00
2023-05-01T05:48:29.468Z,18.50
2023-05-01T05:50:57.646Z,14.00
2023-05-01T05:53:26.410Z,15.00
2023-05-01T05:55:57.391Z,14.50
2023-05-01T05:58:25.966Z,19.50
2023-05-01T06:00:55.869Z,19.00
2023-05-01T06:03:24.245Z,16.50
2023-05-01T06:05:54.433Z,17.33
2023-05-01T06:08:22.582Z,18.00
2023-05-01T06:10:50.764Z,15.00
2023-05-01T06:13:18.618Z,16.67
2023-05-01T06:15:49.093Z,12.00
2023-05-01T06:18:17.583Z,14.00
2023-05-01T06:20:47.419Z,12.50
2023-05-01T06:23:15.642Z,13.00
2023-05-01T06:25:49.932Z,12.50
2023-05-01T06:28:18.295Z,12.00
2023-05-01T06:30:46.428Z,9.00
2023-05-01T06:33:14.792Z,12.00
2023-05-01T06:35:43.942Z,11.00
2023-05-01T06:38:11.855Z,9.00
2023-05-01T06:40:40.595Z,9.00
2023-05-01T06:43:08.597Z,12.00
2023-05-01T06:45:39.766Z,18.00
2023-05-01T06:50:36.837Z,17.00
2023-05-01T06:53:04.845Z,16.00
2023-05-01T06:55:35.187Z,17.00
2023-05-01T06:58:12.548Z,16.00
2023-05-01T07:00:50.480Z,13.67
2023-05-01T07:03:18.750Z,11.00
2023-05-01T07:05:46.804Z,13.00
2023-05-01T07:08:14.779Z,11.00
2023-05-01T07:10:42.700Z,10.00
2023-05-01T07:13:10.732Z,8.00
2023-05-01T07:15:38.883Z,10.00
2023-05-01T07:18:06.859Z,9.00
2023-05-01T07:20:34.925Z,6.67
2023-05-01T07:23:05.932Z,6.00
2023-05-01T07:25:36.307Z,8.67
2023-05-01T07:28:05.421Z,5.00
2023-05-01T07:30:33.602Z,5.00
2023-05-01T07:33:02.397Z,5.00
2023-05-01T07:35:31.534Z,4.00
2023-05-01T07:38:03.146Z,5.00
2023-05-01T07:40:36.714Z,5.00
2023-05-01T07:43:05.236Z,3.00
2023-05-01T07:45:34.122Z,1.00
2023-05-01T07:48:05.297Z,3.00
2023-05-01T07:50:33.650Z,4.00
2023-05-01T07:53:01.987Z,4.00
2023-05-01T07:55:34.405Z,3.00
2023-05-01T07:58:03.578Z,4.00
2023-05-01T08:00:31.894Z,2.00
2023-05-01T08:03:00.184Z,3.50
2023-05-01T08:05:32.312Z,4.00
2023-05-01T08:08:00.634Z,4.00
2023-05-01T08:10:30.237Z,3.00
2023-05-01T08:13:00.782Z,3.00
2023-05-01T08:15:33.201Z,3.00
2023-05-01T08:18:01.377Z,4.00
2023-05-01T08:23:05.216Z,3.00
2023-05-01T08:25:41.891Z,4.00
2023-05-01T08:28:10.232Z,3.00
2023-05-01T08:30:43.184Z,4.00
2023-05-01T08:33:39.027Z,3.00
2023-05-01T08:36:11.695Z,2.00
2023-05-01T08:38:39.872Z,3.00
2023-05-01T08:41:16.396Z,4.50
2023-05-01T08:43:45.018Z,4.00
2023-05-01T08:46:16.587Z,4.00
2023-05-01T08:48:53.960Z,4.00
2023-05-01T08:51:29.147Z,3.00
2023-05-01T08:54:02.089Z,4.33
2023-05-01T08:56:31.869Z,2.00
2023-05-01T08:59:01.397Z,3.00
2023-05-01T09:01:32.832Z,3.00
2023-05-01T09:04:04.362Z,2.00
2023-05-01T09:06:32.705Z,2.00
2023-05-01T09:09:04.107Z,2.00
2023-05-01T09:11:38.964Z,3.00
2023-05-01T09:14:08.702Z,1.50
2023-05-01T09:16:41.203Z,3.00
2023-05-01T09:19:10.041Z,3.00
2023-05-01T09:21:38.576Z,2.50
2023-05-01T09:24:07.507Z,2.00
2023-05-01T09:26:41.420Z,2.00
2023-05-01T09:29:10.538Z,2.00
2023-05-01T09:31:38.908Z,3.00
2023-05-01T09:34:08.019Z,2.00
2023-05-01T09:36:38.846Z,2.00
2023-05-01T09:39:22.612Z,1.50
2023-05-01T09:41:54.414Z,3.00
2023-05-01T09:44:22.889Z,0.67
2023-05-01T09:46:51.261Z,3.00
2023-05-01T09:49:46.882Z,4.50
2023-05-01T09:52:19.416Z,3.00
2023-05-01T09:54:47.585Z,0.50
2023-05-01T09:57:15.602Z,2.00
2023-05-01T10:00:10.455Z,2.00
2023-05-01T10:02:40.018Z,2.00
2023-05-01T10:05:10.450Z,1.00
2023-05-01T10:07:38.976Z,1.00
2023-05-01T10:10:36.446Z,2.00
2023-05-01T10:13:18.097Z,2.00
2023-05-01T10:15:51.333Z,2.00
2023-05-01T10:18:24.334Z,2.00
2023-05-01T10:20:53.201Z,5.00
2023-05-01T10:23:26.222Z,3.00
2023-05-01T10:26:00.714Z,2.00
2023-05-01T10:28:31.855Z,5.00
2023-05-01T10:31:03.693Z,3.50
2023-05-01T10:33:36.527Z,2.50
2023-05-01T10:36:11.982Z,3.00
2023-05-01T10:38:50.579Z,2.00
2023-05-01T10:41:57.005Z,1.50
2023-05-01T10:44:27.262Z,2.50
2023-05-01T10:46:58.799Z,2.00
2023-05-01T10:50:20.186Z,3.00
2023-05-01T10:53:12.688Z,2.00
2023-05-01T10:55:46.107Z,5.00
2023-05-01T10:58:37.265Z,2.00
2023-05-01T11:01:44.062Z,2.50
2023-05-01T11:04:30.615Z,2.00
2023-05-01T11:06:58.695Z,2.50
2023-05-01T11:09:44.766Z,1.00
2023-05-01T11:12:17.463Z,2.50
2023-05-01T11:14:55.882Z,2.67
2023-05-01T11:17:39.931Z,3.00
2023-05-01T11:20:32.514Z,1.67
2023-05-01T11:23:00.720Z,1.00
2023-05-01T11:25:34.020Z,2.00
2023-05-01T11:28:03.869Z,1.00
2023-05-01T11:30:39.100Z,0.00
2023-05-01T11:33:10.117Z,1.00
2023-05-01T11:35:39.440Z,1.00
2023-05-01T11:38:18.734Z,2.00
2023-05-01T11:40:55.739Z,2.00
2023-05-01T11:43:24.031Z,2.00
2023-05-01T11:46:03.837Z,2.00
2023-05-01T11:48:32.267Z,1.00
2023-05-01T11:51:00.508Z,0.50
2023-05-01T11:53:32.633Z,2.00
2023-05-01T11:56:01.252Z,1.50
2023-05-01T11:58:34.082Z,0.50
2023-05-01T12:01:03.404Z,1.33
2023-05-01T12:03:42.448Z,2.00
2023-05-01T12:06:13.392Z,1.00
2023-05-01T12:08:47.575Z,2.00
2023-05-01T12:11:15.646Z,1.00
2023-05-01T12:13:44.716Z,0.00
2023-05-01T12:16:12.906Z,2.00
2023-05-01T12:18:46.533Z,2.00
2023-05-01T12:21:18.472Z,1.00
2023-05-01T12:23:46.672Z,0.50
2023-05-01T12:26:25.818Z,0.33
2023-05-01T12:28:58.160Z,1.00
2023-05-01T12:31:27.825Z,1.00
2023-05-01T12:33:57.039Z,2.00
2023-05-01T12:36:28.874Z,1.00
2023-05-01T12:39:12.721Z,0.00
2023-05-01T12:41:45.632Z,1.00
2023-05-01T12:44:22.691Z,1.00
2023-05-01T12:46:53.925Z,2.00
2023-05-01T12:49:23.693Z,1.00
2023-05-01T12:51:57.400Z,1.00
2023-05-01T12:54:31.824Z,2.00
2023-05-01T12:57:10.690Z,4.00
2023-05-01T12:59:40.971Z,1.00
2023-05-01T13:02:16.062Z,2.00
2023-05-01T13:04:46.465Z,2.50
2023-05-01T13:07:19.439Z,1.33
2023-05-01T13:09:55.577Z,1.50
2023-05-01T13:12:27.321Z,1.00
2023-05-01T13:14:56.334Z,1.00
2023-05-01T13:17:33.047Z,2.50
2023-05-01T13:20:05.427Z,2.00
2023-05-01T13:22:39.291Z,2.00
2023-05-01T13:25:38.699Z,1.00
2023-05-01T13:28:07.975Z,4.00
2023-05-01T13:30:37.026Z,3.00
2023-05-01T13:33:06.225Z,3.33
2023-05-01T13:35:39.337Z,3.00
2023-05-01T13:38:12.788Z,2.00
2023-05-01T13:40:41.392Z,3.00
2023-05-01T13:43:16.384Z,3.00
2023-05-01T13:45:45.119Z,2.50
2023-05-01T13:48:18.032Z,4.00
2023-05-01T13:50:46.212Z,3.00
2023-05-01T13:53:14.771Z,5.00
2023-05-01T13:55:43.082Z,3.00
2023-05-01T13:58:11.174Z,4.50
2023-05-01T14:00:40.112Z,3.00
2023-05-01T14:03:13.062Z,4.00
2023-05-01T14:06:41.604Z,3.00
2023-05-01T14:09:10.765Z,3.33
2023-05-01T14:11:47.003Z,3.50
2023-05-01T14:14:16.347Z,4.00
2023-05-01T14:16:52.735Z,4.50
2023-05-01T14:19:20.857Z,3.00
2023-05-01T14:21:48.949Z,2.33
2023-05-01T14:24:18.429Z,2.50
2023-05-01T14:26:49.177Z,3.50
2023-05-01T14:29:28.050Z,3.00
2023-05-01T14:31:56.837Z,3.00
2023-05-01T14:34:27.323Z,3.50
2023-05-01T14:36:58.414Z,5.00
2023-05-01T14:39:29.573Z,4.50
2023-05-01T14:42:05.937Z,4.00
2023-05-01T14:44:44.689Z,3.00
2023-05-01T14:47:19.944Z,4.00
2023-05-01T14:52:22.512Z,4.00
2023-05-01T14:54:58.261Z,3.50
2023-05-01T14:57:31.752Z,2.00
2023-05-01T15:02:46.097Z,1.00
2023-05-01T15:05:16.390Z,3.00
2023-05-01T15:07:44.731Z,3.00
2023-05-01T15:10:13.033Z,3.00
2023-05-01T15:12:41.212Z,3.00
2023-05-01T15:15:09.858Z,5.50
2023-05-01T15:17:40.986Z,2.00
2023-05-01T15:20:11.529Z,3.00
2023-05-01T15:22:40.923Z,3.00
2023-05-01T15:25:11.006Z,4.00
2023-05-01T15:27:39.132Z,4.00
2023-05-01T15:30:11.235Z,1.50
2023-05-01T15:32:39.343Z,2.50
2023-05-01T15:35:12.294Z,3.00
2023-05-01T15:37:40.915Z,4.00
2023-05-01T15:40:09.507Z,5.00
2023-05-01T15:42:40.483Z,2.50
2023-05-01T15:45:09.000Z,2.33
2023-05-01T15:47:39.916Z,3.33
2023-05-01T15:50:21.929Z,3.00
2023-05-01T15:52:51.317Z,1.67
2023-05-01T15:55:19.756Z,3.00
2023-05-01T15:57:51.601Z,2.00
2023-05-01T16:00:22.110Z,2.50
2023-05-01T16:02:50.833Z,4.00
2023-05-01T16:05:24.754Z,3.00
2023-05-01T16:08:07.011Z,2.50
2023-05-01T16:10:40.820Z,3.00
2023-05-01T16:13:09.405Z,4.00
2023-05-01T16:15:38.184Z,2.50
2023-05-01T16:18:06.728Z,4.00
2023-05-01T16:20:44.428Z,2.00
2023-05-01T16:23:15.112Z,3.00
2023-05-01T16:25:43.982Z,3.00
2023-05-01T16:28:20.432Z,3.67
2023-05-01T16:30:48.930Z,3.67
2023-05-01T16:33:19.284Z,4.00
2023-05-01T16:35:50.892Z,3.50
2023-05-01T16:38:19.901Z,5.00
2023-05-01T16:40:50.857Z,2.50
2023-05-01T16:43:22.170Z,1.00
2023-05-01T16:45:50.425Z,2.00
2023-05-01T16:49:21.985Z,4.00
2023-05-01T16:51:50.724Z,3.00
2023-05-01T16:54:18.966Z,5.00
2023-05-01T16:56:46.974Z,3.00
2023-05-01T16:59:15.818Z,4.00
2023-05-01T17:01:46.913Z,3.00
2023-05-01T17:04:15.409Z,4.00
2023-05-01T17:06:43.998Z,4.00
2023-05-01T17:09:12.017Z,3.00
2023-05-01T17:11:56.990Z,4.00
2023-05-01T17:14:29.001Z,3.00
2023-05-01T17:16:58.978Z,4.50
2023-05-01T17:20:27.397Z,4.00
2023-05-01T17:22:55.352Z,3.00
2023-05-01T17:25:24.010Z,3.00
2023-05-01T17:27:59.047Z,3.50
2023-05-01T17:30:35.798Z,3.00
2023-05-01T17:33:07.459Z,5.00
2023-05-01T17:35:35.853Z,3.00
2023-05-01T17:38:03.869Z,5.00
2023-05-01T17:40:32.722Z,5.00
2023-05-01T17:43:09.029Z,5.50
2023-05-01T17:45:40.328Z,5.00
2023-05-01T17:48:14.366Z,6.00
2023-05-01T17:50:50.167Z,5.00
2023-05-01T17:53:23.444Z,4.00
2023-05-01T17:56:06.964Z,1.50
2023-05-01T17:58:41.486Z,4.50
2023-05-01T18:01:10.543Z,4.00
2023-05-01T18:06:19.170Z,4.00
2023-05-01T18:08:48.222Z,6.00
2023-05-01T18:11:18.957Z,4.00
2023-05-01T18:13:49.128Z,3.50
2023-05-01T18:16:22.817Z,4.00
2023-05-01T18:18:59.241Z,5.50
2023-05-01T18:21:30.913Z,4.00
2023-05-01T18:24:02.464Z,4.00
2023-05-01T18:26:35.947Z,5.50
2023-05-01T18:29:05.531Z,4.00
2023-05-01T18:31:41.767Z,5.00
2023-05-01T18:37:00.230Z,4.67
2023-05-01T18:39:28.717Z,5.00
2023-05-01T18:41:56.961Z,5.50
2023-05-01T18:44:27.346Z,6.50
2023-05-01T18:49:24.731Z,5.00
2023-05-01T18:51:52.824Z,8.00
2023-05-01T18:56:49.972Z,6.00
2023-05-01T18:59:18.059Z,8.00
2023-05-01T19:01:46.333Z,4.00
2023-05-01T19:04:14.216Z,7.00
2023-05-01T19:06:42.513Z,5.00
2023-05-01T19:09:11.253Z,7.00
2023-05-01T19:11:39.394Z,8.00
2023-05-01T19:14:07.519Z,7.00
2023-05-01T19:16:35.640Z,5.00
2023-05-01T19:19:03.702Z,6.00
2023-05-01T19:21:32.108Z,5.00
2023-05-01T19:24:00.066Z,7.00
2023-05-01T19:26:29.414Z,7.00
2023-05-01T19:28:57.399Z,7.00
2023-05-01T19:31:25.836Z,9.00
2023-05-01T19:33:55.157Z,6.00
2023-05-01T19:36:22.997Z,9.00
2023-05-01T19:38:50.851Z,8.50
2023-05-01T19:41:19.071Z,7.00
2023-05-01T19:43:47.208Z,8.50
2023-05-01T19:46:15.358Z,7.00
2023-05-01T19:48:43.410Z,8.00
2023-05-01T19:51:11.933Z,8.00
2023-05-01T19:53:39.883Z,9.00
2023-05-01T19:56:07.838Z,9.00
2023-05-01T19:58:36.914Z,8.00
2023-05-01T20:01:08.632Z,8.00
2023-05-01T20:03:36.737Z,9.00
2023-05-01T20:06:06.388Z,10.00
2023-05-01T20:08:34.683Z,10.00
2023-05-01T20:13:30.688Z,8.00
2023-05-01T20:15:58.636Z,9.50
2023-05-01T20:18:26.627Z,8.00
2023-05-01T20:20:54.754Z,12.00
2023-05-01T20:23:23.608Z,12.00
2023-05-01T20:25:55.188Z,12.00
2023-05-01T20:28:23.674Z,8.50
2023-05-01T20:30:51.903Z,10.50
2023-05-01T20:33:20.725Z,12.00
2023-05-01T20:36:07.004Z,9.00
2023-05-01T20:38:55.474Z,9.50
2023-05-01T20:41:36.755Z,10.50
2023-05-01T20:44:10.398Z,11.50
2023-05-01T20:46:39.614Z,13.50
2023-05-01T20:49:10.197Z,14.00
2023-05-01T20:51:39.522Z,15.67
2023-05-01T20:54:08.019Z,17.00
2023-05-01T20:56:36.448Z,15.50
2023-05-01T20:59:04.961Z,14.00
2023-05-01T21:01:33.091Z,12.50
2023-05-01T21:04:01.311Z,11.00
2023-05-01T21:06:31.854Z,11.00
2023-05-01T21:09:13.382Z,12.00
2023-05-01T21:11:41.408Z,11.00
2023-05-01T21:14:09.902Z,9.00
2023-05-01T21:16:39.267Z,13.00
2023-05-01T21:19:07.748Z,6.00
2023-05-01T21:21:36.910Z,12.00
2023-05-01T21:24:06.676Z,10.00
2023-05-01T21:26:35.055Z,11.00
2023-05-01T21:29:02.982Z,12.00
2023-05-01T21:31:36.789Z,12.00
2023-05-01T21:34:05.930Z,15.00
2023-05-01T21:36:38.700Z,19.00
2023-05-01T21:39:06.692Z,25.00
2023-05-01T21:41:35.446Z,29.00
2023-05-01T21:44:04.823Z,25.00
2023-05-01T21:46:33.065Z,22.00
2023-05-01T21:49:01.017Z,25.50
2023-05-01T21:51:29.217Z,17.33
2023-05-01T21:53:59.400Z,19.50
2023-05-01T21:56:27.572Z,20.50
2023-05-01T21:59:05.356Z,22.00
2023-05-01T22:01:33.435Z,19.00
2023-05-01T22:04:01.750Z,17.00
2023-05-01T22:06:29.878Z,21.50
2023-05-01T22:08:57.878Z,19.00
2023-05-01T22:11:31.967Z,13.00
2023-05-01T22:14:01.967Z,15.50
2023-05-01T22:16:30.022Z,13.50
2023-05-01T22:18:58.130Z,16.33
2023-05-01T22:21:26.737Z,17.00
2023-05-01T22:23:55.533Z,15.00
2023-05-01T22:26:24.685Z,17.50
2023-05-01T22:31:21.200Z,13.00
2023-05-01T22:33:49.334Z,18.33
2023-05-01T22:36:17.263Z,16.00
2023-05-01T22:38:45.265Z,16.00
2023-05-01T22:41:13.293Z,17.00
2023-05-01T22:43:41.206Z,16.50
2023-05-01T22:46:09.535Z,15.50
2023-05-01T22:48:37.388Z,19.00
2023-05-01T22:51:06.709Z,23.00
2023-05-01T22:53:34.609Z,20.00
2023-05-01T22:56:02.537Z,19.00
2023-05-01T22:58:30.409Z,16.50
2023-05-01T23:00:58.417Z,21.00
2023-05-01T23:03:26.525Z,23.50
2023-05-01T23:05:54.881Z,20.00
2023-05-01T23:08:22.816Z,18.50
2023-05-01T23:10:50.908Z,25.50
2023-05-01T23:13:22.173Z,23.00
2023-05-01T23:15:52.419Z,20.00
2023-05-01T23:18:25.526Z,23.00
2023-05-01T23:20:53.818Z,20.00
2023-05-01T23:23:23.174Z,21.00
2023-05-01T23:25:51.614Z,17.00
2023-05-01T23:28:22.299Z,21.00
2023-05-01T23:30:59.506Z,18.00
2023-05-01T23:33:34.587Z,17.00
2023-05-01T23:36:02.901Z,17.00
2023-05-01T23:38:31.028Z,25.00
2023-05-01T23:40:59.667Z,19.50
2023-05-01T23:43:27.859Z,20.50
2023-05-01T23:45:56.163Z,18.33
2023-05-01T23:48:25.275Z,20.00
2023-05-01T23:50:53.440Z,19.50
2023-05-01T23:53:21.718Z,23.00
2023-05-01T23:55:49.856Z,23.00
2023-05-01T23:58:18.048Z,26.50
